sensor_id;sensor_type;location;lat;lon;timestamp;temperature;humidity
7232;DHT22;3657;49.630;11.018;2023-03-01T00:02:15;0.50;99.90
7232;DHT22;3657;49.630;11.018;2023-03-01T00:04:41;0.50;99.90
7232;DHT22;3657;49.630;11.018;2023-03-01T00:07:09;0.50;99.90
7232;DHT22;3657;49.630;11.018;2023-03-01T00:09:36;0.50;99.90
7232;DHT22;3657;49.630;11.018;2023-03-01T00:12:04;0.50;99.90
7232;DHT22;3657;49.630;11.018;2023-03-01T00:14:30;0.50;99.90
7232;DHT22;3657;49.630;11.018;2023-03-01T00:16:57;0.40;99.90
7232;DHT22;3657;49.630;11.018;2023-03-01T00:19:24;0.50;99.90
7232;DHT22;3657;49.630;11.018;2023-03-01T00:21:50;0.40;99.90
7232;DHT22;3657;49.630;11.018;2023-03-01T00:24:18;0.40;99.90
7232;DHT22;3657;49.630;11.018;2023-03-01T00:26:45;0.30;99.90
7232;DHT22;3657;49.630;11.018;2023-03-01T00:29:12;0.30;99.90
7232;DHT22;3657;49.630;11.018;2023-03-01T00:31:38;0.20;99.90
7232;DHT22;3657;49.630;11.018;2023-03-01T00:34:05;0.20;99.90
7232;DHT22;3657;49.630;11.018;2023-03-01T00:36:35;0.20;99.90
7232;DHT22;3657;49.630;11.018;2023-03-01T00:39:04;0.20;99.90
7232;DHT22;3657;49.630;11.018;2023-03-01T00:41:32;0.20;99.90
7232;DHT22;3657;49.630;11.018;2023-03-01T00:44:00;0.20;99.90
7232;DHT22;3657;49.630;11.018;2023-03-01T00:46:27;0.20;99.90
7232;DHT22;3657;49.630;11.018;2023-03-01T00:48:55;0.20;99.90
7232;DHT22;3657;49.630;11.018;2023-03-01T00:51:23;0.10;99.90
7232;DHT22;3657;49.630;11.018;2023-03-01T00:53:51;0.10;99.90
7232;DHT22;3657;49.630;11.018;2023-03-01T00:56:18;0.10;99.90
7232;DHT22;3657;49.630;11.018;2023-03-01T00:58:47;0.20;99.90
7232;DHT22;3657;49.630;11.018;2023-03-01T01:01:15;0.20;99.90
7232;DHT22;3657;49.630;11.018;2023-03-01T01:03:46;0.20;99.90
7232;DHT22;3657;49.630;11.018;2023-03-01T01:06:14;0.20;99.90
7232;DHT22;3657;49.630;11.018;2023-03-01T01:08:41;0.20;99.90
7232;DHT22;3657;49.630;11.018;2023-03-01T01:11:09;0.20;99.90
7232;DHT22;3657;49.630;11.018;2023-03-01T01:13:36;0.20;99.90
7232;DHT22;3657;49.630;11.018;2023-03-01T01:16:05;0.20;99.90
7232;DHT22;3657;49.630;11.018;2023-03-01T01:18:32;0.10;99.90
7232;DHT22;3657;49.630;11.018;2023-03-01T01:21:03;0.20;99.90
7232;DHT22;3657;49.630;11.018;2023-03-01T01:23:30;0.10;99.90
7232;DHT22;3657;49.630;11.018;2023-03-01T01:25:57;0.10;99.90
7232;DHT22;3657;49.630;11.018;2023-03-01T01:28:24;0.10;99.90
7232;DHT22;3657;49.630;11.018;2023-03-01T01:30:50;0.10;99.90
7232;DHT22;3657;49.630;11.018;2023-03-01T01:33:18;0.10;99.90
7232;DHT22;3657;49.630;11.018;2023-03-01T01:35:45;0.10;99.90
7232;DHT22;3657;49.630;11.018;2023-03-01T01:38:12;0.10;99.90
7232;DHT22;3657;49.630;11.018;2023-03-01T01:40:43;0.00;99.90
7232;DHT22;3657;49.630;11.018;2023-03-01T01:43:16;-0.10;99.90
7232;DHT22;3657;49.630;11.018;2023-03-01T01:45:44;-0.10;99.90
7232;DHT22;3657;49.630;11.018;2023-03-01T01:48:16;-0.20;99.90
7232;DHT22;3657;49.630;11.018;2023-03-01T01:50:45;-0.20;99.90
7232;DHT22;3657;49.630;11.018;2023-03-01T01:53:17;-0.20;99.90
7232;DHT22;3657;49.630;11.018;2023-03-01T01:55:47;-0.30;99.90
7232;DHT22;3657;49.630;11.018;2023-03-01T01:58:17;-0.30;99.90
7232;DHT22;3657;49.630;11.018;2023-03-01T02:00:45;-0.20;99.90
7232;DHT22;3657;49.630;11.018;2023-03-01T02:03:14;-0.20;99.90
7232;DHT22;3657;49.630;11.018;2023-03-01T02:05:50;-0.10;99.90
7232;DHT22;3657;49.630;11.018;2023-03-01T02:08:19;-0.20;99.90
7232;DHT22;3657;49.630;11.018;2023-03-01T02:10:46;-0.10;99.90
7232;DHT22;3657;49.630;11.018;2023-03-01T02:13:14;-0.10;99.90
7232;DHT22;3657;49.630;11.018;2023-03-01T02:15:41;-0.10;99.90
7232;DHT22;3657;49.630;11.018;2023-03-01T02:18:11;-0.10;99.90
7232;DHT22;3657;49.630;11.018;2023-03-01T02:20:48;-0.10;99.90
7232;DHT22;3657;49.630;11.018;2023-03-01T02:23:17;-0.10;99.90
7232;DHT22;3657;49.630;11.018;2023-03-01T02:25:49;-0.10;99.90
7232;DHT22;3657;49.630;11.018;2023-03-01T02:28:29;-0.10;99.90
7232;DHT22;3657;49.630;11.018;2023-03-01T02:30:56;-0.10;99.90
7232;DHT22;3657;49.630;11.018;2023-03-01T02:33:41;-0.10;99.90
7232;DHT22;3657;49.630;11.018;2023-03-01T02:36:12;-0.20;99.90
7232;DHT22;3657;49.630;11.018;2023-03-01T02:38:40;-0.20;99.90
7232;DHT22;3657;49.630;11.018;2023-03-01T02:41:08;-0.20;99.90
7232;DHT22;3657;49.630;11.018;2023-03-01T02:43:36;-0.20;99.90
7232;DHT22;3657;49.630;11.018;2023-03-01T02:46:06;-0.20;99.90
7232;DHT22;3657;49.630;11.018;2023-03-01T02:48:41;-0.20;99.90
7232;DHT22;3657;49.630;11.018;2023-03-01T02:51:17;-0.20;99.90
7232;DHT22;3657;49.630;11.018;2023-03-01T02:53:55;-0.20;99.90
7232;DHT22;3657;49.630;11.018;2023-03-01T02:56:23;-0.30;99.90
7232;DHT22;3657;49.630;11.018;2023-03-01T02:58:51;-0.30;99.90
7232;DHT22;3657;49.630;11.018;2023-03-01T03:01:19;-0.30;99.90
7232;DHT22;3657;49.630;11.018;2023-03-01T03:03:46;-0.30;99.90
7232;DHT22;3657;49.630;11.018;2023-03-01T03:06:13;-0.30;99.90
7232;DHT22;3657;49.630;11.018;2023-03-01T03:08:39;-0.30;99.90
7232;DHT22;3657;49.630;11.018;2023-03-01T03:11:06;-0.40;99.90
7232;DHT22;3657;49.630;11.018;2023-03-01T03:13:33;-0.30;99.90
7232;DHT22;3657;49.630;11.018;2023-03-01T03:16:02;-0.40;99.90
7232;DHT22;3657;49.630;11.018;2023-03-01T03:18:29;-0.40;99.90
7232;DHT22;3657;49.630;11.018;2023-03-01T03:20:55;-0.40;99.90
7232;DHT22;3657;49.630;11.018;2023-03-01T03:23:22;-0.50;99.90
7232;DHT22;3657;49.630;11.018;2023-03-01T03:25:49;-0.50;99.90
7232;DHT22;3657;49.630;11.018;2023-03-01T03:28:16;-0.50;99.90
7232;DHT22;3657;49.630;11.018;2023-03-01T03:30:44;-0.50;99.90
7232;DHT22;3657;49.630;11.018;2023-03-01T03:33:13;-0.50;99.90
7232;DHT22;3657;49.630;11.018;2023-03-01T03:35:42;-0.40;99.90
7232;DHT22;3657;49.630;11.018;2023-03-01T03:38:10;-0.50;99.90
7232;DHT22;3657;49.630;11.018;2023-03-01T03:40:43;-0.50;99.90
7232;DHT22;3657;49.630;11.018;2023-03-01T03:43:11;-0.50;99.90
7232;DHT22;3657;49.630;11.018;2023-03-01T03:45:38;-0.50;99.90
7232;DHT22;3657;49.630;11.018;2023-03-01T03:48:06;-0.50;99.90
7232;DHT22;3657;49.630;11.018;2023-03-01T03:50:35;-0.50;99.90
7232;DHT22;3657;49.630;11.018;2023-03-01T03:53:03;-0.50;99.90
7232;DHT22;3657;49.630;11.018;2023-03-01T03:55:30;-0.60;99.90
7232;DHT22;3657;49.630;11.018;2023-03-01T03:58:00;-0.60;99.90
7232;DHT22;3657;49.630;11.018;2023-03-01T04:00:33;-0.60;99.90
7232;DHT22;3657;49.630;11.018;2023-03-01T04:03:00;-0.60;99.90
7232;DHT22;3657;49.630;11.018;2023-03-01T04:05:27;-0.60;99.90
7232;DHT22;3657;49.630;11.018;2023-03-01T04:07:55;-0.60;99.90
7232;DHT22;3657;49.630;11.018;2023-03-01T04:10:28;-0.70;99.90
7232;DHT22;3657;49.630;11.018;2023-03-01T04:12:55;-0.70;99.90
7232;DHT22;3657;49.630;11.018;2023-03-01T04:15:23;-0.70;99.90
7232;DHT22;3657;49.630;11.018;2023-03-01T04:17:51;-0.70;99.90
7232;DHT22;3657;49.630;11.018;2023-03-01T04:20:20;-0.70;99.90
7232;DHT22;3657;49.630;11.018;2023-03-01T04:22:51;-0.70;99.90
7232;DHT22;3657;49.630;11.018;2023-03-01T04:25:20;-0.70;99.90
7232;DHT22;3657;49.630;11.018;2023-03-01T04:27:46;-0.80;99.90
7232;DHT22;3657;49.630;11.018;2023-03-01T04:30:13;-0.80;99.90
7232;DHT22;3657;49.630;11.018;2023-03-01T04:32:40;-0.80;99.90
7232;DHT22;3657;49.630;11.018;2023-03-01T04:35:08;-0.80;99.90
7232;DHT22;3657;49.630;11.018;2023-03-01T04:37:35;-0.90;99.90
7232;DHT22;3657;49.630;11.018;2023-03-01T04:40:02;-0.90;99.90
7232;DHT22;3657;49.630;11.018;2023-03-01T04:42:39;-0.90;99.90
7232;DHT22;3657;49.630;11.018;2023-03-01T04:45:06;-0.90;99.90
7232;DHT22;3657;49.630;11.018;2023-03-01T04:47:38;-0.90;99.90
7232;DHT22;3657;49.630;11.018;2023-03-01T04:50:06;-0.90;99.90
7232;DHT22;3657;49.630;11.018;2023-03-01T04:52:33;-0.90;99.90
7232;DHT22;3657;49.630;11.018;2023-03-01T04:55:00;-0.90;99.90
7232;DHT22;3657;49.630;11.018;2023-03-01T04:57:27;-1.00;99.90
7232;DHT22;3657;49.630;11.018;2023-03-01T04:59:55;-1.00;99.90
7232;DHT22;3657;49.630;11.018;2023-03-01T05:02:21;-1.00;99.90
7232;DHT22;3657;49.630;11.018;2023-03-01T05:04:48;-1.00;99.90
7232;DHT22;3657;49.630;11.018;2023-03-01T05:07:15;-1.00;99.90
7232;DHT22;3657;49.630;11.018;2023-03-01T05:09:44;-1.00;99.90
7232;DHT22;3657;49.630;11.018;2023-03-01T05:12:11;-1.00;99.90
7232;DHT22;3657;49.630;11.018;2023-03-01T05:14:38;-1.10;99.90
7232;DHT22;3657;49.630;11.018;2023-03-01T05:17:07;-1.00;99.90
7232;DHT22;3657;49.630;11.018;2023-03-01T05:19:33;-1.10;99.90
7232;DHT22;3657;49.630;11.018;2023-03-01T05:22:00;-1.10;99.90
7232;DHT22;3657;49.630;11.018;2023-03-01T05:24:33;-1.10;99.90
7232;DHT22;3657;49.630;11.018;2023-03-01T05:27:01;-1.10;99.90
7232;DHT22;3657;49.630;11.018;2023-03-01T05:29:30;-1.20;99.90
7232;DHT22;3657;49.630;11.018;2023-03-01T05:32:01;-1.10;99.90
7232;DHT22;3657;49.630;11.018;2023-03-01T05:34:32;-1.10;99.90
7232;DHT22;3657;49.630;11.018;2023-03-01T05:36:59;-1.30;99.90
7232;DHT22;3657;49.630;11.018;2023-03-01T05:39:27;-1.30;99.90
7232;DHT22;3657;49.630;11.018;2023-03-01T05:41:55;-1.30;99.90
7232;DHT22;3657;49.630;11.018;2023-03-01T05:44:23;-1.30;99.90
7232;DHT22;3657;49.630;11.018;2023-03-01T05:46:50;-1.40;99.90
7232;DHT22;3657;49.630;11.018;2023-03-01T05:49:17;-1.50;99.90
7232;DHT22;3657;49.630;11.018;2023-03-01T05:51:49;-1.50;99.90
7232;DHT22;3657;49.630;11.018;2023-03-01T05:54:17;-1.50;99.90
7232;DHT22;3657;49.630;11.018;2023-03-01T05:56:44;-1.50;99.90
7232;DHT22;3657;49.630;11.018;2023-03-01T05:59:11;-1.50;99.90
7232;DHT22;3657;49.630;11.018;2023-03-01T06:01:39;-1.50;99.90
7232;DHT22;3657;49.630;11.018;2023-03-01T06:04:06;-1.50;99.90
7232;DHT22;3657;49.630;11.018;2023-03-01T06:06:34;-1.50;99.90
7232;DHT22;3657;49.630;11.018;2023-03-01T06:09:04;-1.50;99.90
7232;DHT22;3657;49.630;11.018;2023-03-01T06:11:33;-1.50;99.90
7232;DHT22;3657;49.630;11.018;2023-03-01T06:14:00;-1.50;99.90
7232;DHT22;3657;49.630;11.018;2023-03-01T06:16:27;-1.50;99.90
7232;DHT22;3657;49.630;11.018;2023-03-01T06:18:53;-1.50;99.90
7232;DHT22;3657;49.630;11.018;2023-03-01T06:21:20;-1.50;99.90
7232;DHT22;3657;49.630;11.018;2023-03-01T06:23:47;-1.50;99.90
7232;DHT22;3657;49.630;11.018;2023-03-01T06:26:14;-1.50;99.90
7232;DHT22;3657;49.630;11.018;2023-03-01T06:28:41;-1.50;99.90
7232;DHT22;3657;49.630;11.018;2023-03-01T06:31:11;-1.50;99.90
7232;DHT22;3657;49.630;11.018;2023-03-01T06:33:38;-1.50;99.90
7232;DHT22;3657;49.630;11.018;2023-03-01T06:36:05;-1.50;99.90
7232;DHT22;3657;49.630;11.018;2023-03-01T06:38:32;-1.50;99.90
7232;DHT22;3657;49.630;11.018;2023-03-01T06:40:58;-1.40;99.90
7232;DHT22;3657;49.630;11.018;2023-03-01T06:43:27;-1.30;99.90
7232;DHT22;3657;49.630;11.018;2023-03-01T06:45:54;-1.30;99.90
7232;DHT22;3657;49.630;11.018;2023-03-01T06:48:21;-1.10;99.90
7232;DHT22;3657;49.630;11.018;2023-03-01T06:50:47;-1.10;99.90
7232;DHT22;3657;49.630;11.018;2023-03-01T06:53:14;-1.00;99.90
7232;DHT22;3657;49.630;11.018;2023-03-01T06:55:41;-1.00;99.90
7232;DHT22;3657;49.630;11.018;2023-03-01T06:58:09;-0.80;99.90
7232;DHT22;3657;49.630;11.018;2023-03-01T07:00:37;-0.70;99.90
7232;DHT22;3657;49.630;11.018;2023-03-01T07:03:06;-0.70;99.90
7232;DHT22;3657;49.630;11.018;2023-03-01T07:05:33;-0.60;99.90
7232;DHT22;3657;49.630;11.018;2023-03-01T07:07:59;-0.50;99.90
7232;DHT22;3657;49.630;11.018;2023-03-01T07:10:26;-0.50;99.90
7232;DHT22;3657;49.630;11.018;2023-03-01T07:12:55;-0.30;99.90
7232;DHT22;3657;49.630;11.018;2023-03-01T07:15:21;-0.30;99.90
7232;DHT22;3657;49.630;11.018;2023-03-01T07:17:49;-0.10;99.90
7232;DHT22;3657;49.630;11.018;2023-03-01T07:20:17;-0.10;99.90
7232;DHT22;3657;49.630;11.018;2023-03-01T07:22:44;-0.10;99.90
7232;DHT22;3657;49.630;11.018;2023-03-01T07:25:10;-0.10;99.90
7232;DHT22;3657;49.630;11.018;2023-03-01T07:27:37;-0.10;99.90
7232;DHT22;3657;49.630;11.018;2023-03-01T07:30:05;0.10;99.90
7232;DHT22;3657;49.630;11.018;2023-03-01T07:32:32;0.10;99.90
7232;DHT22;3657;49.630;11.018;2023-03-01T07:35:00;0.10;99.90
7232;DHT22;3657;49.630;11.018;2023-03-01T07:37:26;0.10;99.90
7232;DHT22;3657;49.630;11.018;2023-03-01T07:39:53;0.10;99.90
7232;DHT22;3657;49.630;11.018;2023-03-01T07:42:20;0.20;99.90
7232;DHT22;3657;49.630;11.018;2023-03-01T07:44:46;0.30;99.90
7232;DHT22;3657;49.630;11.018;2023-03-01T07:47:13;0.40;99.90
7232;DHT22;3657;49.630;11.018;2023-03-01T07:49:40;0.50;99.90
7232;DHT22;3657;49.630;11.018;2023-03-01T07:52:09;0.70;99.90
7232;DHT22;3657;49.630;11.018;2023-03-01T07:54:36;0.80;99.90
7232;DHT22;3657;49.630;11.018;2023-03-01T07:57:03;0.90;99.90
7232;DHT22;3657;49.630;11.018;2023-03-01T07:59:29;0.90;99.90
7232;DHT22;3657;49.630;11.018;2023-03-01T08:01:56;0.90;99.90
7232;DHT22;3657;49.630;11.018;2023-03-01T08:04:23;1.00;99.90
7232;DHT22;3657;49.630;11.018;2023-03-01T08:06:52;1.00;99.90
7232;DHT22;3657;49.630;11.018;2023-03-01T08:09:21;1.20;99.90
7232;DHT22;3657;49.630;11.018;2023-03-01T08:11:48;1.20;99.90
7232;DHT22;3657;49.630;11.018;2023-03-01T08:14:15;1.20;99.90
7232;DHT22;3657;49.630;11.018;2023-03-01T08:16:41;1.30;99.90
7232;DHT22;3657;49.630;11.018;2023-03-01T08:19:10;1.40;99.90
7232;DHT22;3657;49.630;11.018;2023-03-01T08:21:37;1.40;99.90
7232;DHT22;3657;49.630;11.018;2023-03-01T08:24:05;1.40;99.90
7232;DHT22;3657;49.630;11.018;2023-03-01T08:26:33;1.60;99.90
7232;DHT22;3657;49.630;11.018;2023-03-01T08:29:00;1.70;99.90
7232;DHT22;3657;49.630;11.018;2023-03-01T08:31:28;1.80;99.90
7232;DHT22;3657;49.630;11.018;2023-03-01T08:33:57;1.80;99.90
7232;DHT22;3657;49.630;11.018;2023-03-01T08:36:26;1.90;99.90
7232;DHT22;3657;49.630;11.018;2023-03-01T08:38:54;1.90;99.90
7232;DHT22;3657;49.630;11.018;2023-03-01T08:41:21;1.90;99.90
7232;DHT22;3657;49.630;11.018;2023-03-01T08:43:49;2.00;99.90
7232;DHT22;3657;49.630;11.018;2023-03-01T08:46:16;2.00;99.90
7232;DHT22;3657;49.630;11.018;2023-03-01T08:48:43;1.90;99.90
7232;DHT22;3657;49.630;11.018;2023-03-01T08:51:12;2.10;99.90
7232;DHT22;3657;49.630;11.018;2023-03-01T08:53:39;2.30;99.90
7232;DHT22;3657;49.630;11.018;2023-03-01T08:56:07;2.50;99.90
7232;DHT22;3657;49.630;11.018;2023-03-01T08:58:34;2.70;99.90
7232;DHT22;3657;49.630;11.018;2023-03-01T09:01:07;2.70;99.90
7232;DHT22;3657;49.630;11.018;2023-03-01T09:03:34;2.80;99.90
7232;DHT22;3657;49.630;11.018;2023-03-01T09:06:01;2.70;99.90
7232;DHT22;3657;49.630;11.018;2023-03-01T09:08:28;2.90;99.90
7232;DHT22;3657;49.630;11.018;2023-03-01T09:10:55;3.10;99.90
7232;DHT22;3657;49.630;11.018;2023-03-01T09:13:22;3.10;99.90
7232;DHT22;3657;49.630;11.018;2023-03-01T09:15:50;3.30;99.80
7232;DHT22;3657;49.630;11.018;2023-03-01T09:18:18;3.70;99.80
7232;DHT22;3657;49.630;11.018;2023-03-01T09:20:45;3.80;98.90
7232;DHT22;3657;49.630;11.018;2023-03-01T09:23:11;4.10;99.70
7232;DHT22;3657;49.630;11.018;2023-03-01T09:25:38;3.90;98.50
7232;DHT22;3657;49.630;11.018;2023-03-01T09:28:05;4.30;97.70
7232;DHT22;3657;49.630;11.018;2023-03-01T09:30:32;4.50;97.30
7232;DHT22;3657;49.630;11.018;2023-03-01T09:32:58;4.80;97.50
7232;DHT22;3657;49.630;11.018;2023-03-01T09:35:26;5.10;96.70
7232;DHT22;3657;49.630;11.018;2023-03-01T09:37:53;5.10;97.50
7232;DHT22;3657;49.630;11.018;2023-03-01T09:40:23;4.60;98.00
7232;DHT22;3657;49.630;11.018;2023-03-01T09:42:54;4.10;98.40
7232;DHT22;3657;49.630;11.018;2023-03-01T09:45:29;3.70;99.40
7232;DHT22;3657;49.630;11.018;2023-03-01T09:48:00;3.70;99.50
7232;DHT22;3657;49.630;11.018;2023-03-01T09:50:33;3.60;99.20
7232;DHT22;3657;49.630;11.018;2023-03-01T09:53:02;3.40;99.40
7232;DHT22;3657;49.630;11.018;2023-03-01T09:55:35;3.30;99.80
7232;DHT22;3657;49.630;11.018;2023-03-01T09:58:13;3.50;99.40
7232;DHT22;3657;49.630;11.018;2023-03-01T10:00:48;4.00;97.00
7232;DHT22;3657;49.630;11.018;2023-03-01T10:03:19;4.50;97.60
7232;DHT22;3657;49.630;11.018;2023-03-01T10:05:58;4.60;98.30
7232;DHT22;3657;49.630;11.018;2023-03-01T10:08:33;4.90;96.80
7232;DHT22;3657;49.630;11.018;2023-03-01T10:11:02;4.90;95.60
7232;DHT22;3657;49.630;11.018;2023-03-01T10:13:35;5.20;96.50
7232;DHT22;3657;49.630;11.018;2023-03-01T10:16:10;5.50;95.60
7232;DHT22;3657;49.630;11.018;2023-03-01T10:18:40;5.90;94.50
7232;DHT22;3657;49.630;11.018;2023-03-01T10:21:15;6.10;93.40
7232;DHT22;3657;49.630;11.018;2023-03-01T10:23:43;6.10;94.70
7232;DHT22;3657;49.630;11.018;2023-03-01T10:26:20;5.90;94.10
7232;DHT22;3657;49.630;11.018;2023-03-01T10:28:59;5.80;94.90
7232;DHT22;3657;49.630;11.018;2023-03-01T10:31:36;5.90;94.00
7232;DHT22;3657;49.630;11.018;2023-03-01T10:34:08;6.10;95.50
7232;DHT22;3657;49.630;11.018;2023-03-01T10:36:38;5.90;94.40
7232;DHT22;3657;49.630;11.018;2023-03-01T10:39:12;5.40;95.50
7232;DHT22;3657;49.630;11.018;2023-03-01T10:41:53;5.60;94.40
7232;DHT22;3657;49.630;11.018;2023-03-01T10:44:42;6.00;95.30
7232;DHT22;3657;49.630;11.018;2023-03-01T10:47:15;6.50;92.70
7232;DHT22;3657;49.630;11.018;2023-03-01T10:49:57;6.70;91.80
7232;DHT22;3657;49.630;11.018;2023-03-01T10:52:28;7.00;91.60
7232;DHT22;3657;49.630;11.018;2023-03-01T10:54:57;6.90;93.40
7232;DHT22;3657;49.630;11.018;2023-03-01T10:57:36;6.80;91.80
7232;DHT22;3657;49.630;11.018;2023-03-01T11:00:19;7.00;91.00
7232;DHT22;3657;49.630;11.018;2023-03-01T11:02:49;7.10;93.10
7232;DHT22;3657;49.630;11.018;2023-03-01T11:05:23;6.90;91.30
7232;DHT22;3657;49.630;11.018;2023-03-01T11:07:53;7.00;90.70
7232;DHT22;3657;49.630;11.018;2023-03-01T11:10:22;7.10;90.10
7232;DHT22;3657;49.630;11.018;2023-03-01T11:12:51;7.20;91.40
7232;DHT22;3657;49.630;11.018;2023-03-01T11:15:26;7.10;90.30
7232;DHT22;3657;49.630;11.018;2023-03-01T11:17:54;7.30;90.30
7232;DHT22;3657;49.630;11.018;2023-03-01T11:20:26;7.30;94.20
7232;DHT22;3657;49.630;11.018;2023-03-01T11:22:56;7.40;91.60
7232;DHT22;3657;49.630;11.018;2023-03-01T11:25:25;7.60;88.60
7232;DHT22;3657;49.630;11.018;2023-03-01T11:27:53;7.70;91.60
7232;DHT22;3657;49.630;11.018;2023-03-01T11:30:24;7.80;91.20
7232;DHT22;3657;49.630;11.018;2023-03-01T11:33:01;7.60;89.80
7232;DHT22;3657;49.630;11.018;2023-03-01T11:35:29;7.50;90.20
7232;DHT22;3657;49.630;11.018;2023-03-01T11:38:06;7.50;87.30
7232;DHT22;3657;49.630;11.018;2023-03-01T11:40:40;7.60;91.80
7232;DHT22;3657;49.630;11.018;2023-03-01T11:43:14;7.80;90.50
7232;DHT22;3657;49.630;11.018;2023-03-01T11:45:57;8.10;94.00
7232;DHT22;3657;49.630;11.018;2023-03-01T11:48:45;7.40;93.10
7232;DHT22;3657;49.630;11.018;2023-03-01T11:51:21;7.30;90.80
7232;DHT22;3657;49.630;11.018;2023-03-01T11:54:03;7.00;93.60
7232;DHT22;3657;49.630;11.018;2023-03-01T11:56:34;6.50;92.90
7232;DHT22;3657;49.630;11.018;2023-03-01T11:59:23;6.50;96.00
7232;DHT22;3657;49.630;11.018;2023-03-01T12:02:26;6.40;92.70
7232;DHT22;3657;49.630;11.018;2023-03-01T12:05:13;6.40;93.00
7232;DHT22;3657;49.630;11.018;2023-03-01T12:07:48;5.60;96.20
7232;DHT22;3657;49.630;11.018;2023-03-01T12:10:23;5.60;96.10
7232;DHT22;3657;49.630;11.018;2023-03-01T12:13:03;5.70;96.00
7232;DHT22;3657;49.630;11.018;2023-03-01T12:19:04;5.80;96.80
7232;DHT22;3657;49.630;11.018;2023-03-01T12:21:46;5.60;96.60
7232;DHT22;3657;49.630;11.018;2023-03-01T12:24:46;5.60;95.90
7232;DHT22;3657;49.630;11.018;2023-03-01T12:27:26;5.60;95.00
7232;DHT22;3657;49.630;11.018;2023-03-01T12:30:02;5.70;96.20
7232;DHT22;3657;49.630;11.018;2023-03-01T12:32:45;6.10;93.90
7232;DHT22;3657;49.630;11.018;2023-03-01T12:35:40;6.20;97.90
7232;DHT22;3657;49.630;11.018;2023-03-01T12:38:30;6.40;96.10
7232;DHT22;3657;49.630;11.018;2023-03-01T12:44:13;6.00;96.60
7232;DHT22;3657;49.630;11.018;2023-03-01T12:46:52;5.80;98.10
7232;DHT22;3657;49.630;11.018;2023-03-01T12:49:24;5.60;98.40
7232;DHT22;3657;49.630;11.018;2023-03-01T12:51:58;5.70;99.40
7232;DHT22;3657;49.630;11.018;2023-03-01T12:54:29;5.90;98.00
7232;DHT22;3657;49.630;11.018;2023-03-01T12:56:58;5.80;98.80
7232;DHT22;3657;49.630;11.018;2023-03-01T12:59:36;5.70;99.10
7232;DHT22;3657;49.630;11.018;2023-03-01T13:02:12;5.60;99.70
7232;DHT22;3657;49.630;11.018;2023-03-01T13:04:54;5.80;98.90
7232;DHT22;3657;49.630;11.018;2023-03-01T13:07:30;5.80;99.70
7232;DHT22;3657;49.630;11.018;2023-03-01T13:10:14;5.80;99.50
7232;DHT22;3657;49.630;11.018;2023-03-01T13:12:52;5.80;99.70
7232;DHT22;3657;49.630;11.018;2023-03-01T13:15:28;5.70;99.60
7232;DHT22;3657;49.630;11.018;2023-03-01T13:17:57;5.60;99.90
7232;DHT22;3657;49.630;11.018;2023-03-01T13:20:29;5.60;99.20
7232;DHT22;3657;49.630;11.018;2023-03-01T13:23:06;5.70;99.90
7232;DHT22;3657;49.630;11.018;2023-03-01T13:25:33;5.80;99.90
7232;DHT22;3657;49.630;11.018;2023-03-01T13:28:35;5.80;99.90
7232;DHT22;3657;49.630;11.018;2023-03-01T13:31:05;5.90;99.40
7232;DHT22;3657;49.630;11.018;2023-03-01T13:33:45;5.80;99.90
7232;DHT22;3657;49.630;11.018;2023-03-01T13:36:46;5.80;99.90
7232;DHT22;3657;49.630;11.018;2023-03-01T13:39:31;5.90;99.90
7232;DHT22;3657;49.630;11.018;2023-03-01T13:41:59;6.10;99.90
7232;DHT22;3657;49.630;11.018;2023-03-01T13:44:30;6.10;99.90
7232;DHT22;3657;49.630;11.018;2023-03-01T13:46:59;6.10;99.90
7232;DHT22;3657;49.630;11.018;2023-03-01T13:49:43;6.10;99.90
7232;DHT22;3657;49.630;11.018;2023-03-01T13:52:31;6.20;99.90
7232;DHT22;3657;49.630;11.018;2023-03-01T13:54:59;6.40;99.50
7232;DHT22;3657;49.630;11.018;2023-03-01T13:57:32;6.30;99.90
7232;DHT22;3657;49.630;11.018;2023-03-01T14:00:00;6.10;99.90
7232;DHT22;3657;49.630;11.018;2023-03-01T14:02:28;6.00;99.90
7232;DHT22;3657;49.630;11.018;2023-03-01T14:04:59;6.10;99.90
7232;DHT22;3657;49.630;11.018;2023-03-01T14:07:28;6.20;99.90
7232;DHT22;3657;49.630;11.018;2023-03-01T14:09:58;6.30;99.90
7232;DHT22;3657;49.630;11.018;2023-03-01T14:12:39;6.20;99.90
7232;DHT22;3657;49.630;11.018;2023-03-01T14:15:15;6.20;98.30
7232;DHT22;3657;49.630;11.018;2023-03-01T14:17:52;6.60;99.70
7232;DHT22;3657;49.630;11.018;2023-03-01T14:20:23;6.90;98.70
7232;DHT22;3657;49.630;11.018;2023-03-01T14:22:53;6.70;99.20
7232;DHT22;3657;49.630;11.018;2023-03-01T14:25:23;6.80;99.90
7232;DHT22;3657;49.630;11.018;2023-03-01T14:28:03;6.70;99.90
7232;DHT22;3657;49.630;11.018;2023-03-01T14:30:34;6.50;99.90
7232;DHT22;3657;49.630;11.018;2023-03-01T14:33:03;6.40;99.90
7232;DHT22;3657;49.630;11.018;2023-03-01T14:35:32;6.40;99.80
7232;DHT22;3657;49.630;11.018;2023-03-01T14:38:01;6.40;98.60
7232;DHT22;3657;49.630;11.018;2023-03-01T14:40:30;6.50;99.90
7232;DHT22;3657;49.630;11.018;2023-03-01T14:42:59;6.50;99.90
7232;DHT22;3657;49.630;11.018;2023-03-01T14:45:28;6.50;99.90
7232;DHT22;3657;49.630;11.018;2023-03-01T14:47:59;6.40;99.50
7232;DHT22;3657;49.630;11.018;2023-03-01T14:50:28;6.40;99.80
7232;DHT22;3657;49.630;11.018;2023-03-01T14:52:58;6.20;99.90
7232;DHT22;3657;49.630;11.018;2023-03-01T14:55:30;6.20;99.90
7232;DHT22;3657;49.630;11.018;2023-03-01T14:57:58;6.20;99.90
7232;DHT22;3657;49.630;11.018;2023-03-01T15:00:27;6.30;99.90
7232;DHT22;3657;49.630;11.018;2023-03-01T15:02:57;6.30;99.90
7232;DHT22;3657;49.630;11.018;2023-03-01T15:05:29;6.30;99.90
7232;DHT22;3657;49.630;11.018;2023-03-01T15:07:58;6.30;99.90
7232;DHT22;3657;49.630;11.018;2023-03-01T15:10:29;6.30;99.90
7232;DHT22;3657;49.630;11.018;2023-03-01T15:12:56;6.50;99.90
7232;DHT22;3657;49.630;11.018;2023-03-01T15:15:34;6.50;99.30
7232;DHT22;3657;49.630;11.018;2023-03-01T15:18:04;6.60;99.90
7232;DHT22;3657;49.630;11.018;2023-03-01T15:20:33;6.40;99.90
7232;DHT22;3657;49.630;11.018;2023-03-01T15:23:02;6.50;99.90
7232;DHT22;3657;49.630;11.018;2023-03-01T15:25:32;6.50;98.60
7232;DHT22;3657;49.630;11.018;2023-03-01T15:28:00;6.50;99.90
7232;DHT22;3657;49.630;11.018;2023-03-01T15:30:30;6.60;98.80
7232;DHT22;3657;49.630;11.018;2023-03-01T15:33:25;6.70;99.70
7232;DHT22;3657;49.630;11.018;2023-03-01T15:35:55;6.80;98.20
7232;DHT22;3657;49.630;11.018;2023-03-01T15:38:31;6.80;99.70
7232;DHT22;3657;49.630;11.018;2023-03-01T15:41:01;6.70;99.90
7232;DHT22;3657;49.630;11.018;2023-03-01T15:43:40;6.60;99.90
7232;DHT22;3657;49.630;11.018;2023-03-01T15:46:17;6.60;99.90
7232;DHT22;3657;49.630;11.018;2023-03-01T15:48:46;6.50;99.40
7232;DHT22;3657;49.630;11.018;2023-03-01T15:51:15;6.60;99.90
7232;DHT22;3657;49.630;11.018;2023-03-01T15:53:51;6.50;99.90
7232;DHT22;3657;49.630;11.018;2023-03-01T15:56:22;6.30;99.90
7232;DHT22;3657;49.630;11.018;2023-03-01T15:58:49;6.20;99.90
7232;DHT22;3657;49.630;11.018;2023-03-01T16:01:17;6.20;99.90
7232;DHT22;3657;49.630;11.018;2023-03-01T16:03:44;6.30;98.60
7232;DHT22;3657;49.630;11.018;2023-03-01T16:06:11;6.30;97.60
7232;DHT22;3657;49.630;11.018;2023-03-01T16:08:39;6.30;99.90
7232;DHT22;3657;49.630;11.018;2023-03-01T16:11:13;6.20;99.00
7232;DHT22;3657;49.630;11.018;2023-03-01T16:13:42;6.10;99.10
7232;DHT22;3657;49.630;11.018;2023-03-01T16:16:10;6.10;99.90
7232;DHT22;3657;49.630;11.018;2023-03-01T16:18:40;6.00;99.90
7232;DHT22;3657;49.630;11.018;2023-03-01T16:21:08;6.00;98.60
7232;DHT22;3657;49.630;11.018;2023-03-01T16:23:36;6.00;99.00
7232;DHT22;3657;49.630;11.018;2023-03-01T16:26:03;6.00;98.50